createdAt,value
2019-02-16T00:01:20.543Z,5.37
2019-02-16T00:03:48.902Z,5.20
2019-02-16T00:06:18.448Z,4.47
2019-02-16T00:08:46.997Z,4.60
2019-02-16T00:11:15.377Z,4.80
2019-02-16T00:13:44.937Z,4.53
2019-02-16T00:16:13.369Z,4.37
2019-02-16T00:18:41.895Z,5.17
2019-02-16T00:21:10.432Z,4.77
2019-02-16T00:23:38.849Z,4.83
2019-02-16T00:26:07.302Z,4.37
2019-02-16T00:28:35.884Z,4.50
2019-02-16T00:31:04.367Z,4.63
2019-02-16T00:33:32.856Z,4.80
2019-02-16T00:36:01.335Z,5.17
2019-02-16T00:38:29.824Z,3.90
2019-02-16T00:40:58.277Z,5.67
2019-02-16T00:43:31.014Z,4.20
2019-02-16T00:45:59.453Z,4.60
2019-02-16T00:48:27.824Z,4.67
2019-02-16T00:50:56.368Z,5.23
2019-02-16T00:53:24.889Z,4.27
2019-02-16T00:55:53.253Z,5.03
2019-02-16T00:58:21.796Z,4.77
2019-02-16T01:00:50.300Z,5.07
2019-02-16T01:03:18.774Z,5.20
2019-02-16T01:05:47.757Z,4.70
2019-02-16T01:08:16.197Z,4.20
2019-02-16T01:10:44.632Z,4.57
2019-02-16T01:13:13.168Z,5.80
2019-02-16T01:15:41.576Z,5.00
2019-02-16T01:18:09.953Z,4.50
2019-02-16T01:20:38.409Z,5.50
2019-02-16T01:23:06.803Z,4.80
2019-02-16T01:25:35.283Z,5.00
2019-02-16T01:28:03.680Z,4.47
2019-02-16T01:30:32.134Z,5.20
2019-02-16T01:33:00.656Z,6.00
2019-02-16T01:35:29.175Z,5.70
2019-02-16T01:37:57.540Z,5.40
2019-02-16T01:40:25.991Z,5.73
2019-02-16T01:42:54.498Z,5.17
2019-02-16T01:45:22.950Z,4.93
2019-02-16T01:47:51.414Z,4.80
2019-02-16T01:50:19.825Z,5.17
2019-02-16T01:52:48.248Z,4.93
2019-02-16T01:55:16.686Z,5.03
2019-02-16T01:57:46.293Z,5.37
2019-02-16T02:00:14.734Z,4.90
2019-02-16T02:02:43.182Z,4.93
2019-02-16T02:05:11.740Z,5.07
2019-02-16T02:07:40.456Z,5.07
2019-02-16T02:10:09.149Z,4.87
2019-02-16T02:12:37.640Z,5.07
2019-02-16T02:15:06.384Z,5.10
2019-02-16T02:17:34.831Z,5.53
2019-02-16T02:20:03.356Z,5.10
2019-02-16T02:22:31.747Z,5.03
2019-02-16T02:25:00.268Z,6.27
2019-02-16T02:27:28.779Z,5.33
2019-02-16T02:29:57.236Z,5.60
2019-02-16T02:32:25.677Z,5.20
2019-02-16T02:34:54.070Z,5.57
2019-02-16T02:37:23.684Z,6.10
2019-02-16T02:39:52.056Z,5.67
2019-02-16T02:42:20.481Z,5.30
2019-02-16T02:44:49.046Z,5.87
2019-02-16T02:47:17.478Z,5.67
2019-02-16T02:49:45.873Z,5.80
2019-02-16T02:52:14.244Z,5.53
2019-02-16T02:54:42.660Z,5.67
2019-02-16T02:57:11.244Z,5.67
2019-02-16T02:59:39.691Z,5.90
2019-02-16T03:02:08.197Z,5.60
2019-02-16T03:04:36.716Z,6.27
2019-02-16T03:07:05.237Z,6.27
2019-02-16T03:09:33.611Z,6.53
2019-02-16T03:12:02.103Z,5.53
2019-02-16T03:14:30.568Z,6.63
2019-02-16T03:16:58.918Z,6.20
2019-02-16T03:19:27.323Z,5.73
2019-02-16T03:22:02.441Z,6.73
2019-02-16T03:24:25.865Z,5.73
2019-02-16T03:27:16.505Z,5.67
2019-02-16T03:30:02.834Z,6.03
2019-02-16T03:32:53.314Z,5.63
2019-02-16T03:35:42.289Z,6.40
2019-02-16T03:38:28.539Z,6.10
2019-02-16T03:40:56.976Z,6.63
2019-02-16T03:43:25.343Z,7.27
2019-02-16T03:45:53.810Z,6.97
2019-02-16T03:48:22.276Z,6.93
2019-02-16T03:50:50.644Z,6.03
2019-02-16T03:53:19.129Z,6.47
2019-02-16T03:55:47.588Z,6.63
2019-02-16T03:58:16.120Z,6.83
2019-02-16T04:00:44.702Z,6.80
2019-02-16T04:03:13.087Z,7.17
2019-02-16T04:05:41.454Z,6.97
2019-02-16T04:08:09.925Z,6.47
2019-02-16T04:10:38.316Z,6.40
2019-02-16T04:13:06.756Z,6.70
2019-02-16T04:15:35.372Z,6.33
2019-02-16T04:18:03.737Z,5.87
2019-02-16T04:20:32.176Z,5.70
2019-02-16T04:23:00.589Z,6.73
2019-02-16T04:25:29.130Z,7.07
2019-02-16T04:27:57.497Z,6.50
2019-02-16T04:30:25.912Z,6.90
2019-02-16T04:32:54.359Z,6.60
2019-02-16T04:35:22.829Z,6.70
2019-02-16T04:37:51.244Z,6.30
2019-02-16T04:40:19.690Z,6.37
2019-02-16T04:42:48.060Z,6.87
2019-02-16T04:45:16.515Z,6.60
2019-02-16T04:47:44.883Z,6.47
2019-02-16T04:50:20.568Z,7.40
2019-02-16T04:52:48.985Z,6.83
2019-02-16T04:55:17.481Z,6.63
2019-02-16T04:57:46.017Z,6.60
2019-02-16T05:00:14.463Z,7.20
2019-02-16T05:02:42.907Z,7.13
2019-02-16T05:05:11.406Z,6.83
2019-02-16T05:07:39.780Z,6.90
2019-02-16T05:10:08.237Z,6.97
2019-02-16T05:12:36.816Z,6.80
2019-02-16T05:15:05.355Z,6.77
2019-02-16T05:17:33.732Z,6.93
2019-02-16T05:20:02.200Z,6.73
2019-02-16T05:22:30.587Z,6.60
2019-02-16T05:24:58.959Z,7.23
2019-02-16T05:27:27.460Z,7.17
2019-02-16T05:29:55.913Z,6.77
2019-02-16T05:32:24.321Z,6.97
2019-02-16T05:34:52.785Z,7.10
2019-02-16T05:37:21.227Z,7.07
2019-02-16T05:39:49.665Z,6.90
2019-02-16T05:42:18.141Z,7.17
2019-02-16T05:44:46.600Z,6.87
2019-02-16T05:47:15.040Z,6.70
2019-02-16T05:49:43.500Z,6.57
2019-02-16T05:52:11.864Z,6.63
2019-02-16T05:54:40.314Z,6.83
2019-02-16T05:57:08.709Z,6.73
2019-02-16T05:59:37.152Z,7.30
2019-02-16T06:02:05.650Z,6.90
2019-02-16T06:04:34.104Z,6.50
2019-02-16T06:07:02.546Z,7.00
2019-02-16T06:09:31.029Z,7.13
2019-02-16T06:11:59.417Z,7.37
2019-02-16T06:14:27.815Z,7.20
2019-02-16T06:16:56.226Z,7.50
2019-02-16T06:19:24.637Z,6.80
2019-02-16T06:21:53.003Z,7.40
2019-02-16T06:24:21.409Z,8.17
2019-02-16T06:26:49.852Z,7.43
2019-02-16T06:29:18.317Z,7.30
2019-02-16T06:31:46.754Z,7.70
2019-02-16T06:34:22.848Z,7.43
2019-02-16T06:36:51.220Z,7.63
2019-02-16T06:39:19.669Z,8.33
2019-02-16T06:41:48.188Z,7.50
2019-02-16T06:44:28.744Z,7.23
2019-02-16T06:46:57.203Z,7.60
2019-02-16T06:49:25.657Z,8.40
2019-02-16T06:51:54.099Z,7.10
2019-02-16T06:54:22.583Z,7.50
2019-02-16T06:57:13.143Z,7.70
2019-02-16T06:59:41.986Z,6.90
2019-02-16T07:02:10.485Z,7.37
2019-02-16T07:04:38.843Z,8.20
2019-02-16T07:07:07.296Z,7.30
2019-02-16T07:09:35.781Z,8.10
2019-02-16T07:12:04.236Z,7.03
2019-02-16T07:14:33.031Z,7.00
2019-02-16T07:17:26.431Z,7.97
2019-02-16T07:19:57.064Z,7.90
2019-02-16T07:22:25.548Z,6.90
2019-02-16T07:24:54.192Z,7.03
2019-02-16T07:27:22.612Z,7.57
2019-02-16T07:29:51.059Z,7.93
2019-02-16T07:32:19.496Z,6.97
2019-02-16T07:34:48.036Z,7.30
2019-02-16T07:37:16.492Z,7.97
2019-02-16T07:39:44.936Z,7.87
2019-02-16T07:42:13.556Z,7.50
2019-02-16T07:45:16.752Z,8.03
2019-02-16T07:48:13.324Z,7.40
2019-02-16T07:51:03.763Z,8.07
2019-02-16T07:53:41.285Z,8.13
2019-02-16T07:56:28.906Z,7.47
2019-02-16T07:59:07.440Z,8.77
2019-02-16T08:01:48.396Z,7.87
2019-02-16T08:04:42.514Z,8.70
2019-02-16T08:07:30.894Z,7.90
2019-02-16T08:10:06.336Z,8.10
2019-02-16T08:12:59.816Z,8.47
2019-02-16T08:15:48.861Z,8.73
2019-02-16T08:18:51.738Z,8.20
2019-02-16T08:21:45.151Z,8.97
2019-02-16T08:24:26.369Z,7.90
2019-02-16T08:27:12.829Z,8.40
2019-02-16T08:29:59.503Z,8.83
2019-02-16T08:32:39.788Z,9.47
2019-02-16T08:35:21.224Z,8.87
2019-02-16T08:38:07.925Z,9.67
2019-02-16T08:40:52.205Z,9.60
2019-02-16T08:43:35.016Z,9.40
2019-02-16T08:46:24.393Z,8.60
2019-02-16T08:49:02.574Z,9.53
2019-02-16T08:51:38.886Z,8.33
2019-02-16T08:54:25.714Z,9.13
2019-02-16T08:57:14.548Z,8.23
2019-02-16T08:59:54.613Z,9.63
2019-02-16T09:02:35.048Z,8.40
2019-02-16T09:05:13.668Z,7.63
2019-02-16T09:08:03.328Z,8.27
2019-02-16T09:10:39.195Z,7.40
2019-02-16T09:13:38.889Z,8.50
2019-02-16T09:16:23.065Z,8.07
2019-02-16T09:19:25.849Z,8.10
2019-02-16T09:22:19.563Z,7.23
2019-02-16T09:24:56.239Z,7.10
2019-02-16T09:27:46.261Z,7.40
2019-02-16T09:30:33.439Z,7.00
2019-02-16T09:33:24.936Z,6.80
2019-02-16T09:36:04.561Z,7.80
2019-02-16T09:38:51.185Z,7.47
2019-02-16T09:41:37.501Z,7.63
2019-02-16T09:44:12.292Z,7.43
2019-02-16T09:47:11.933Z,7.20
2019-02-16T09:49:58.589Z,7.80
2019-02-16T09:52:49.304Z,7.13
2019-02-16T09:55:35.433Z,6.33
2019-02-16T09:58:41.299Z,7.50
2019-02-16T10:01:34.765Z,7.30
2019-02-16T10:04:25.247Z,7.70
2019-02-16T10:07:18.992Z,7.27
2019-02-16T10:10:12.524Z,7.50
2019-02-16T10:13:00.621Z,7.87
2019-02-16T10:15:38.026Z,7.43
2019-02-16T10:18:20.151Z,7.67
2019-02-16T10:21:06.371Z,7.20
2019-02-16T10:23:41.455Z,9.30
2019-02-16T10:26:24.336Z,10.17
2019-02-16T10:29:19.324Z,9.53
2019-02-16T10:32:09.733Z,10.17
2019-02-16T10:34:57.349Z,11.13
2019-02-16T10:38:03.253Z,10.20
2019-02-16T10:40:49.452Z,10.87
2019-02-16T10:46:17.911Z,10.23
2019-02-16T10:49:08.588Z,10.03
2019-02-16T10:52:08.265Z,10.57
2019-02-16T10:55:06.305Z,9.67
2019-02-16T10:57:43.031Z,10.37
2019-02-16T11:00:20.122Z,10.47
2019-02-16T11:03:10.220Z,10.93
2019-02-16T11:05:48.548Z,10.50
2019-02-16T11:08:22.067Z,10.90
2019-02-16T11:11:13.017Z,10.20
2019-02-16T11:14:12.760Z,10.47
2019-02-16T11:16:55.189Z,11.13
2019-02-16T11:19:39.588Z,11.40
2019-02-16T11:22:19.393Z,11.80
2019-02-16T11:25:13.016Z,11.53
2019-02-16T11:27:50.084Z,11.67
2019-02-16T11:30:36.312Z,11.37
2019-02-16T11:33:11.107Z,11.03
2019-02-16T11:35:47.165Z,10.97
2019-02-16T11:38:27.232Z,11.00
2019-02-16T11:41:02.028Z,10.37
2019-02-16T11:43:42.465Z,11.10
2019-02-16T11:46:28.588Z,11.20
2019-02-16T11:49:13.223Z,11.20
2019-02-16T11:52:13.197Z,10.43
2019-02-16T11:55:04.219Z,11.90
2019-02-16T11:57:50.622Z,11.90
2019-02-16T12:00:35.548Z,10.70
2019-02-16T12:03:13.893Z,11.07
2019-02-16T12:06:04.589Z,11.93
2019-02-16T12:08:58.207Z,11.40
2019-02-16T12:11:43.577Z,10.20
2019-02-16T12:14:22.367Z,10.40
2019-02-16T12:17:04.695Z,11.90
2019-02-16T12:19:45.502Z,11.30
2019-02-16T12:22:22.559Z,12.50
2019-02-16T12:25:08.915Z,11.97
2019-02-16T12:27:49.208Z,10.53
2019-02-16T12:30:54.977Z,10.17
2019-02-16T12:33:29.538Z,10.27
2019-02-16T12:36:19.343Z,10.80
2019-02-16T12:39:05.573Z,10.43
2019-02-16T12:41:56.072Z,9.93
2019-02-16T12:44:38.322Z,9.93
2019-02-16T12:47:20.372Z,9.43
2019-02-16T12:49:58.939Z,9.33
2019-02-16T12:52:44.963Z,10.50
2019-02-16T12:55:41.540Z,10.83
2019-02-16T12:58:16.019Z,9.90
2019-02-16T13:01:04.131Z,10.10
2019-02-16T13:03:50.463Z,10.70
2019-02-16T13:06:41.216Z,9.83
2019-02-16T13:09:32.717Z,10.70
2019-02-16T13:12:12.985Z,10.50
2019-02-16T13:15:03.597Z,10.77
2019-02-16T13:17:41.299Z,10.47
2019-02-16T13:20:47.488Z,9.60
2019-02-16T13:23:32.657Z,8.97
2019-02-16T13:26:30.821Z,10.40
2019-02-16T13:29:24.314Z,9.00
2019-02-16T13:32:09.976Z,9.00
2019-02-16T13:34:45.829Z,9.80
2019-02-16T13:37:25.034Z,9.70
2019-02-16T13:40:18.440Z,10.53
2019-02-16T13:42:52.882Z,11.03
2019-02-16T13:45:39.271Z,9.50
2019-02-16T13:48:41.179Z,10.70
2019-02-16T13:51:25.447Z,10.37
2019-02-16T13:54:16.372Z,10.40
2019-02-16T13:57:09.504Z,9.60
2019-02-16T13:59:51.052Z,9.57
2019-02-16T14:02:35.682Z,8.97
2019-02-16T14:05:10.322Z,9.73
2019-02-16T14:07:47.008Z,10.90
2019-02-16T14:10:40.877Z,10.90
2019-02-16T14:13:21.032Z,9.93
2019-02-16T14:16:01.161Z,9.03
2019-02-16T14:18:29.690Z,9.50
2019-02-16T14:20:58.250Z,9.43
2019-02-16T14:23:28.445Z,8.93
2019-02-16T15:09:47.228Z,13.63
2019-02-16T15:12:15.652Z,13.57
2019-02-16T15:14:44.204Z,12.77
2019-02-16T15:17:12.715Z,12.87
2019-02-16T15:19:41.120Z,11.67
2019-02-16T15:22:09.603Z,13.37
2019-02-16T15:24:38.087Z,13.37
2019-02-16T15:27:06.705Z,14.00
2019-02-16T15:29:35.321Z,12.93
2019-02-16T15:32:03.801Z,14.83
2019-02-16T15:34:32.230Z,15.03
2019-02-16T15:37:00.752Z,13.10
2019-02-16T15:39:29.249Z,13.13
2019-02-16T15:41:57.597Z,13.30
2019-02-16T15:44:26.071Z,14.20
2019-02-16T15:46:54.501Z,13.47
2019-02-16T15:49:22.978Z,13.87
2019-02-16T15:51:51.529Z,13.27
2019-02-16T15:54:19.901Z,15.17
2019-02-16T15:56:48.372Z,15.53
2019-02-16T15:59:16.872Z,15.53
2019-02-16T16:01:45.352Z,14.93
2019-02-16T16:04:14.008Z,14.00
2019-02-16T16:06:44.748Z,13.93
2019-02-16T16:09:44.771Z,14.20
2019-02-16T16:12:23.088Z,13.37
2019-02-16T16:15:04.045Z,14.13
2019-02-16T16:17:39.552Z,14.17
2019-02-16T16:20:21.014Z,13.23
2019-02-16T16:23:14.717Z,14.50
2019-02-16T16:25:58.826Z,12.90
2019-02-16T16:28:45.384Z,12.97
2019-02-16T16:31:33.029Z,12.80
2019-02-16T16:34:31.947Z,13.10
2019-02-16T16:37:15.794Z,14.03
2019-02-16T16:39:57.288Z,13.07
2019-02-16T16:42:50.228Z,12.87
2019-02-16T16:45:50.034Z,12.60
2019-02-16T16:48:24.674Z,13.00
2019-02-16T16:51:00.413Z,12.27
2019-02-16T16:53:46.879Z,13.03
2019-02-16T16:56:28.352Z,13.50
2019-02-16T16:59:02.196Z,12.83
2019-02-16T17:01:48.881Z,13.07
2019-02-16T17:04:39.730Z,13.50
2019-02-16T17:07:18.408Z,12.20
2019-02-16T17:10:02.447Z,13.53
2019-02-16T17:12:48.987Z,14.40
2019-02-16T17:15:48.845Z,12.20
2019-02-16T17:18:29.500Z,13.10
2019-02-16T17:21:29.234Z,13.03
2019-02-16T17:24:16.801Z,13.20
2019-02-16T17:27:04.412Z,12.50
2019-02-16T17:29:58.100Z,12.73
2019-02-16T17:32:57.737Z,12.83
2019-02-16T17:35:47.328Z,11.73
2019-02-16T17:38:24.561Z,12.73
2019-02-16T17:41:12.131Z,12.60
2019-02-16T17:43:48.003Z,12.80
2019-02-16T17:46:34.339Z,14.90
2019-02-16T17:49:15.544Z,13.43
2019-02-16T17:51:53.823Z,14.00
2019-02-16T17:54:47.101Z,12.87
2019-02-16T17:57:44.504Z,14.13
2019-02-16T18:00:28.708Z,13.87
2019-02-16T18:03:16.472Z,15.10
2019-02-16T18:05:55.216Z,14.80
2019-02-16T18:08:40.374Z,15.43
2019-02-16T18:11:26.780Z,13.60
2019-02-16T18:14:23.528Z,15.07
2019-02-16T18:17:00.068Z,13.93
2019-02-16T18:19:39.167Z,17.40
2019-02-16T18:22:12.988Z,16.97
2019-02-16T18:24:59.667Z,15.43
2019-02-16T18:28:02.569Z,19.27
2019-02-16T18:30:42.920Z,18.25
2019-02-16T18:33:33.430Z,15.60
2019-02-16T18:36:20.074Z,14.50
2019-02-16T18:39:02.145Z,16.40
2019-02-16T18:41:48.537Z,15.73
2019-02-16T18:44:27.942Z,15.80
2019-02-16T18:47:07.913Z,16.00
2019-02-16T18:50:04.640Z,18.93
2019-02-16T18:52:59.986Z,16.90
2019-02-16T18:55:59.904Z,16.63
2019-02-16T18:58:46.290Z,16.80
2019-02-16T19:01:25.272Z,17.83
2019-02-16T19:04:28.262Z,17.17
2019-02-16T19:07:11.953Z,19.17
2019-02-16T19:09:54.000Z,18.90
2019-02-16T19:12:40.351Z,17.87
2019-02-16T19:15:25.843Z,17.60
2019-02-16T19:18:09.988Z,17.73
2019-02-16T19:21:06.800Z,18.17
2019-02-16T19:23:56.204Z,17.10
2019-02-16T19:26:53.051Z,20.13
2019-02-16T19:29:39.106Z,17.47
2019-02-16T19:32:29.538Z,17.27
2019-02-16T19:35:14.823Z,18.37
2019-02-16T19:38:08.670Z,18.57
2019-02-16T19:41:02.092Z,19.53
2019-02-16T19:44:01.671Z,17.77
2019-02-16T19:46:42.075Z,17.17
2019-02-16T19:49:30.809Z,20.50
2019-02-16T19:52:21.487Z,21.40
2019-02-16T19:54:58.086Z,22.27
2019-02-16T19:57:51.857Z,23.90
2019-02-16T20:00:38.240Z,28.50
2019-02-16T20:03:16.420Z,27.90
2019-02-16T20:06:12.691Z,27.00
2019-02-16T20:09:09.006Z,26.77
2019-02-16T20:11:55.426Z,28.97
2019-02-16T20:14:42.125Z,31.47
2019-02-16T20:17:29.841Z,28.97
2019-02-16T20:20:16.094Z,29.10
2019-02-16T20:23:06.870Z,27.00
2019-02-16T20:25:46.108Z,25.27
2019-02-16T20:28:34.490Z,26.03
2019-02-16T20:31:22.267Z,24.80
2019-02-16T20:34:08.295Z,26.67
2019-02-16T20:36:44.194Z,25.53
2019-02-16T20:39:30.729Z,24.17
2019-02-16T20:42:17.444Z,23.77
2019-02-16T20:45:04.528Z,23.00
2019-02-16T20:47:52.160Z,24.10
2019-02-16T20:50:27.694Z,22.87
2019-02-16T20:53:21.311Z,24.27
2019-02-16T20:55:58.972Z,23.93
2019-02-16T20:58:45.519Z,23.37
2019-02-16T21:01:36.500Z,22.23
2019-02-16T21:04:24.065Z,21.87
2019-02-16T21:07:14.609Z,22.27
2019-02-16T21:10:08.056Z,22.43
2019-02-16T21:12:54.497Z,23.03
2019-02-16T21:15:51.216Z,23.83
2019-02-16T21:18:44.785Z,23.87
2019-02-16T21:21:27.389Z,25.67
2019-02-16T21:24:24.403Z,24.90
2019-02-16T21:27:01.219Z,32.03
2019-02-16T21:29:48.844Z,26.43
2019-02-16T21:32:23.347Z,28.80
2019-02-16T21:35:03.522Z,27.80
2019-02-16T21:37:51.136Z,30.20
2019-02-16T21:40:32.678Z,30.27
2019-02-16T21:43:09.022Z,45.70
2019-02-16T21:45:47.066Z,47.40
2019-02-16T21:48:36.065Z,37.07
2019-02-16T21:51:26.536Z,25.87
2019-02-16T21:54:05.783Z,29.07
2019-02-16T21:57:11.814Z,28.13
2019-02-16T21:59:57.859Z,26.10
2019-02-16T22:02:38.328Z,26.53
2019-02-16T22:05:27.152Z,25.27
2019-02-16T22:08:13.554Z,24.27
2019-02-16T22:10:59.075Z,24.93
2019-02-16T22:13:27.713Z,24.83
2019-02-16T22:15:56.249Z,25.77
2019-02-16T22:18:24.869Z,24.07
2019-02-16T22:20:53.437Z,24.17
2019-02-16T22:23:22.040Z,24.40
2019-02-16T22:25:50.572Z,25.27
2019-02-16T22:28:30.163Z,23.40
2019-02-16T22:30:50.325Z,24.17
2019-02-16T22:33:18.825Z,25.70
2019-02-16T22:35:47.300Z,23.27
2019-02-16T22:38:15.792Z,26.13
2019-02-16T22:40:44.325Z,28.63
2019-02-16T22:43:12.870Z,27.37
2019-02-16T22:45:41.549Z,25.60
2019-02-16T22:48:10.531Z,25.43
2019-02-16T22:50:39.875Z,24.87
2019-02-16T22:53:08.536Z,25.07
2019-02-16T22:55:37.221Z,22.57
2019-02-16T22:58:05.801Z,23.90
2019-02-16T23:00:44.708Z,23.67
2019-02-16T23:03:13.777Z,23.80
2019-02-16T23:05:42.350Z,25.47
2019-02-16T23:08:10.901Z,24.47
2019-02-16T23:10:39.575Z,25.07
2019-02-16T23:13:08.718Z,29.77
2019-02-16T23:15:37.350Z,24.97
2019-02-16T23:18:06.380Z,24.40
2019-02-16T23:20:34.991Z,25.47
2019-02-16T23:23:03.643Z,24.10
2019-02-16T23:25:32.220Z,22.33
2019-02-16T23:28:00.845Z,23.60
2019-02-16T23:30:29.460Z,23.23
2019-02-16T23:32:58.102Z,22.90
2019-02-16T23:35:26.594Z,22.33
2019-02-16T23:37:55.076Z,22.27
2019-02-16T23:40:23.508Z,22.80
2019-02-16T23:42:52.017Z,24.20
2019-02-16T23:45:20.376Z,23.13
2019-02-16T23:47:48.924Z,29.47
2019-02-16T23:50:17.379Z,28.07
2019-02-16T23:52:45.829Z,26.73
2019-02-16T23:55:14.356Z,25.17
2019-02-16T23:57:42.817Z,25.20
